createdAt,value
2022-11-24T00:00:54.784Z,13.93
2022-11-24T00:03:22.712Z,15.18
2022-11-24T00:05:50.688Z,16.38
2022-11-24T00:08:18.546Z,14.65
2022-11-24T00:10:46.378Z,13.45
2022-11-24T00:13:14.303Z,16.83
2022-11-24T00:15:43.520Z,14.45
2022-11-24T00:18:11.397Z,14.65
2022-11-24T00:20:39.293Z,16.00
2022-11-24T00:23:07.930Z,15.60
2022-11-24T00:25:35.742Z,13.35
2022-11-24T00:28:03.593Z,16.98
2022-11-24T00:30:31.480Z,14.57
2022-11-24T00:33:00.768Z,15.75
2022-11-24T00:35:28.657Z,16.23
2022-11-24T00:37:56.685Z,16.08
2022-11-24T00:40:24.800Z,16.65
2022-11-24T00:42:52.762Z,15.27
2022-11-24T00:45:20.613Z,15.40
2022-11-24T00:47:48.460Z,12.95
2022-11-24T00:50:17.969Z,15.82
2022-11-24T00:52:45.825Z,15.77
2022-11-24T00:55:13.638Z,17.10
2022-11-24T00:57:41.544Z,15.68
2022-11-24T01:00:10.402Z,15.93
2022-11-24T01:02:38.383Z,15.13
2022-11-24T01:05:06.873Z,15.02
2022-11-24T01:07:36.197Z,14.40
2022-11-24T01:10:04.543Z,14.80
2022-11-24T01:12:32.382Z,14.60
2022-11-24T01:15:00.273Z,15.73
2022-11-24T01:17:28.278Z,15.95
2022-11-24T01:19:56.122Z,14.85
2022-11-24T01:22:24.926Z,16.38
2022-11-24T01:24:54.190Z,14.65
2022-11-24T01:27:22.301Z,15.35
2022-11-24T01:29:50.274Z,12.82
2022-11-24T01:32:18.207Z,15.77
2022-11-24T01:34:46.208Z,15.43
2022-11-24T01:37:14.280Z,14.15
2022-11-24T01:39:42.205Z,13.40
2022-11-24T01:42:11.516Z,17.15
2022-11-24T01:44:39.351Z,16.27
2022-11-24T01:47:21.303Z,16.55
2022-11-24T01:49:51.457Z,14.25
2022-11-24T01:52:21.440Z,15.50
2022-11-24T01:54:52.963Z,14.35
2022-11-24T01:57:25.969Z,13.43
2022-11-24T02:02:27.276Z,14.30
2022-11-24T02:04:55.446Z,14.40
2022-11-24T02:07:23.388Z,13.38
2022-11-24T02:09:55.115Z,16.58
2022-11-24T02:12:25.440Z,17.42
2022-11-24T02:14:54.673Z,15.35
2022-11-24T02:17:22.554Z,16.65
2022-11-24T02:19:56.505Z,15.77
2022-11-24T02:22:32.012Z,13.93
2022-11-24T02:25:05.213Z,16.85
2022-11-24T02:27:34.570Z,15.45
2022-11-24T02:30:02.489Z,16.15
2022-11-24T02:32:31.301Z,11.85
2022-11-24T02:35:02.683Z,16.15
2022-11-24T02:37:30.624Z,16.58
2022-11-24T02:39:58.450Z,16.55
2022-11-24T02:42:28.038Z,15.65
2022-11-24T02:45:00.068Z,14.73
2022-11-24T02:47:28.246Z,15.73
2022-11-24T02:49:56.185Z,15.15
2022-11-24T02:52:24.039Z,18.08
2022-11-24T02:54:51.881Z,16.15
2022-11-24T02:57:19.895Z,14.77
2022-11-24T02:59:47.724Z,11.93
2022-11-24T03:02:17.056Z,14.20
2022-11-24T03:04:45.435Z,12.48
2022-11-24T03:07:13.336Z,14.73
2022-11-24T03:09:41.292Z,16.23
2022-11-24T03:12:09.334Z,11.85
2022-11-24T03:14:37.317Z,14.93
2022-11-24T03:17:05.417Z,16.17
2022-11-24T03:19:34.713Z,14.25
2022-11-24T03:22:02.555Z,15.35
2022-11-24T03:24:30.467Z,13.80
2022-11-24T03:26:58.387Z,15.70
2022-11-24T03:29:26.354Z,13.45
2022-11-24T03:31:54.220Z,14.70
2022-11-24T03:34:22.037Z,12.27
2022-11-24T03:36:51.360Z,14.63
2022-11-24T03:39:19.290Z,15.50
2022-11-24T03:41:47.081Z,13.77
2022-11-24T03:44:14.918Z,15.10
2022-11-24T03:46:42.805Z,12.20
2022-11-24T03:49:10.874Z,12.50
2022-11-24T03:51:38.820Z,14.75
2022-11-24T03:54:08.560Z,13.50
2022-11-24T03:56:36.501Z,12.73
2022-11-24T03:59:04.576Z,9.55
2022-11-24T04:01:32.450Z,12.43
2022-11-24T04:04:00.391Z,13.38
2022-11-24T04:06:28.257Z,12.25
2022-11-24T04:08:56.102Z,13.52
2022-11-24T04:11:57.294Z,12.68
2022-11-24T04:14:25.469Z,13.85
2022-11-24T04:16:53.269Z,13.38
2022-11-24T04:19:21.077Z,12.02
2022-11-24T04:21:48.927Z,12.60
2022-11-24T04:24:16.762Z,14.80
2022-11-24T04:26:45.968Z,14.07
2022-11-24T04:29:13.876Z,14.02
2022-11-24T04:31:41.763Z,12.70
2022-11-24T04:34:09.693Z,13.52
2022-11-24T04:36:37.478Z,14.50
2022-11-24T04:39:23.025Z,14.35
2022-11-24T04:41:54.782Z,12.95
2022-11-24T04:44:22.616Z,12.48
2022-11-24T04:46:50.541Z,16.15
2022-11-24T04:49:18.546Z,13.48
2022-11-24T04:51:46.894Z,14.00
2022-11-24T04:54:15.152Z,13.90
2022-11-24T04:56:43.837Z,16.00
2022-11-24T04:59:15.779Z,13.73
2022-11-24T05:01:43.873Z,12.05
2022-11-24T05:04:12.570Z,15.13
2022-11-24T05:06:40.559Z,14.02
2022-11-24T05:09:09.057Z,14.02
2022-11-24T05:11:36.955Z,13.52
2022-11-24T05:14:04.849Z,12.77
2022-11-24T05:16:34.122Z,15.32
2022-11-24T05:19:02.069Z,15.18
2022-11-24T05:21:29.973Z,14.32
2022-11-24T05:23:57.877Z,13.73
2022-11-24T05:26:25.679Z,14.93
2022-11-24T05:28:53.570Z,15.77
2022-11-24T05:31:21.634Z,14.40
2022-11-24T05:33:50.916Z,16.25
2022-11-24T05:36:32.622Z,13.75
2022-11-24T05:39:00.598Z,14.65
2022-11-24T05:41:28.459Z,17.15
2022-11-24T05:43:56.305Z,16.00
2022-11-24T05:46:24.202Z,13.07
2022-11-24T05:48:53.434Z,16.42
2022-11-24T05:51:21.259Z,14.88
2022-11-24T05:53:49.099Z,14.98
2022-11-24T05:56:16.961Z,14.82
2022-11-24T05:58:45.037Z,15.30
2022-11-24T06:01:12.938Z,15.43
2022-11-24T06:03:40.895Z,15.93
2022-11-24T06:06:10.283Z,14.85
2022-11-24T06:08:38.148Z,15.40
2022-11-24T06:11:18.481Z,14.48
2022-11-24T06:13:48.450Z,15.70
2022-11-24T06:16:17.058Z,16.70
2022-11-24T06:18:45.084Z,16.30
2022-11-24T06:21:14.349Z,14.93
2022-11-24T06:23:42.181Z,17.02
2022-11-24T06:26:10.212Z,15.27
2022-11-24T06:28:38.214Z,17.10
2022-11-24T06:31:06.970Z,16.90
2022-11-24T06:33:35.658Z,17.52
2022-11-24T06:36:04.754Z,16.58
2022-11-24T06:38:35.277Z,17.90
2022-11-24T06:41:04.436Z,17.02
2022-11-24T06:43:32.360Z,15.57
2022-11-24T06:46:00.455Z,14.60
2022-11-24T06:48:29.033Z,17.20
2022-11-24T06:50:59.852Z,17.52
2022-11-24T06:53:27.908Z,16.20
2022-11-24T06:55:58.858Z,16.67
2022-11-24T06:58:26.837Z,17.27
2022-11-24T07:00:54.823Z,17.40
2022-11-24T07:03:22.699Z,16.80
2022-11-24T07:05:50.853Z,16.63
2022-11-24T07:08:19.006Z,17.65
2022-11-24T07:10:46.849Z,16.73
2022-11-24T07:13:16.042Z,15.65
2022-11-24T07:15:43.955Z,18.50
2022-11-24T07:18:11.802Z,17.80
2022-11-24T07:20:39.637Z,17.48
2022-11-24T07:23:07.620Z,17.85
2022-11-24T07:25:35.521Z,17.95
2022-11-24T07:28:03.402Z,17.83
2022-11-24T07:30:32.716Z,16.52
2022-11-24T07:33:00.742Z,16.55
2022-11-24T07:35:28.766Z,18.17
2022-11-24T07:37:56.985Z,17.50
2022-11-24T07:40:25.966Z,16.98
2022-11-24T07:42:54.043Z,16.55
2022-11-24T07:45:22.250Z,17.58
2022-11-24T07:47:51.451Z,16.80
2022-11-24T07:50:19.299Z,18.00
2022-11-24T07:52:47.170Z,18.45
2022-11-24T07:55:15.227Z,16.20
2022-11-24T07:57:43.080Z,15.98
2022-11-24T08:00:12.136Z,16.58
2022-11-24T08:02:40.056Z,14.88
2022-11-24T08:05:10.631Z,15.10
2022-11-24T08:07:39.366Z,15.23
2022-11-24T08:10:08.644Z,14.05
2022-11-24T08:12:38.169Z,16.40
2022-11-24T08:15:10.984Z,14.00
2022-11-24T08:17:39.298Z,13.07
2022-11-24T08:20:10.642Z,15.77
2022-11-24T08:22:38.539Z,15.32
2022-11-24T08:25:07.168Z,15.25
2022-11-24T08:27:35.120Z,16.70
2022-11-24T08:30:03.020Z,13.80
2022-11-24T08:32:32.164Z,15.07
2022-11-24T08:35:13.543Z,14.45
2022-11-24T08:37:43.506Z,13.68
2022-11-24T08:40:12.863Z,11.60
2022-11-24T08:42:40.826Z,13.00
2022-11-24T08:45:20.446Z,12.68
2022-11-24T08:47:53.565Z,11.18
2022-11-24T08:50:21.494Z,13.23
2022-11-24T08:52:52.561Z,12.75
2022-11-24T08:55:20.737Z,13.65
2022-11-24T08:57:48.620Z,12.75
2022-11-24T09:00:22.840Z,14.73
2022-11-24T09:02:56.133Z,10.70
2022-11-24T09:05:50.653Z,13.65
2022-11-24T09:08:13.433Z,11.82
2022-11-24T09:10:41.802Z,14.38
2022-11-24T09:13:09.712Z,14.13
2022-11-24T09:15:37.607Z,15.27
2022-11-24T09:18:05.593Z,12.05
2022-11-24T09:20:33.444Z,14.65
2022-11-24T09:23:02.249Z,14.40
2022-11-24T09:25:31.555Z,13.10
2022-11-24T09:27:59.926Z,10.00
2022-11-24T09:30:27.955Z,14.00
2022-11-24T09:32:56.628Z,10.18
2022-11-24T09:35:24.742Z,13.65
2022-11-24T09:37:53.725Z,14.10
2022-11-24T09:40:23.782Z,13.00
2022-11-24T09:43:00.123Z,12.02
2022-11-24T09:46:04.015Z,9.77
2022-11-24T09:48:27.591Z,13.55
2022-11-24T09:50:57.480Z,11.40
2022-11-24T09:53:31.042Z,9.73
2022-11-24T09:56:00.661Z,10.25
2022-11-24T09:58:36.904Z,11.55
2022-11-24T10:01:09.043Z,14.25
2022-11-24T10:03:41.840Z,12.53
2022-11-24T10:06:25.241Z,12.80
2022-11-24T10:11:48.888Z,10.80
2022-11-24T10:14:58.947Z,9.75
2022-11-24T10:17:36.298Z,13.05
2022-11-24T10:20:06.784Z,13.32
2022-11-24T10:22:42.553Z,12.88
2022-11-24T10:25:14.705Z,14.15
2022-11-24T10:27:45.557Z,13.10
2022-11-24T10:30:17.289Z,13.60
2022-11-24T10:32:48.145Z,11.60
2022-11-24T10:35:19.526Z,13.15
2022-11-24T10:37:55.971Z,12.73
2022-11-24T10:43:18.358Z,12.23
2022-11-24T10:45:48.176Z,12.77
2022-11-24T10:48:21.245Z,14.88
2022-11-24T10:53:20.049Z,13.05
2022-11-24T10:56:02.581Z,13.30
2022-11-24T10:58:37.337Z,11.45
2022-11-24T11:01:22.820Z,11.38
2022-11-24T11:03:52.729Z,12.00
2022-11-24T11:06:23.469Z,11.82
2022-11-24T11:09:12.458Z,10.95
2022-11-24T11:11:41.519Z,13.40
2022-11-24T11:14:12.828Z,14.23
2022-11-24T11:16:45.918Z,14.07
2022-11-24T11:19:49.992Z,10.52
2022-11-24T11:22:25.080Z,9.18
2022-11-24T11:25:04.782Z,14.68
2022-11-24T11:27:32.805Z,14.50
2022-11-24T11:36:10.895Z,13.73
2022-11-24T11:38:40.711Z,13.32
2022-11-24T11:41:12.782Z,14.10
2022-11-24T11:43:42.092Z,14.80
2022-11-24T11:46:13.382Z,14.20
2022-11-24T11:48:46.580Z,14.68
2022-11-24T11:53:57.322Z,13.25
2022-11-24T11:59:04.730Z,13.40
2022-11-24T12:02:08.924Z,13.80
2022-11-24T12:04:45.527Z,10.88
2022-11-24T12:07:29.964Z,11.25
2022-11-24T12:10:04.911Z,13.45
2022-11-24T12:12:48.844Z,14.45
2022-11-24T12:15:21.350Z,13.32
2022-11-24T12:17:52.848Z,11.90
2022-11-24T12:20:37.989Z,14.27
2022-11-24T12:23:13.978Z,12.45
2022-11-24T12:25:45.086Z,11.60
2022-11-24T12:28:25.532Z,13.57
2022-11-24T12:31:03.091Z,14.07
2022-11-24T12:33:39.987Z,11.70
2022-11-24T12:36:27.654Z,12.55
2022-11-24T12:39:00.280Z,12.95
2022-11-24T12:41:42.476Z,13.45
2022-11-24T12:44:29.247Z,12.45
2022-11-24T12:47:03.377Z,11.88
2022-11-24T12:49:35.449Z,13.73
2022-11-24T12:52:07.521Z,13.52
2022-11-24T12:54:40.167Z,12.98
2022-11-24T12:57:11.774Z,13.88
2022-11-24T12:59:45.348Z,12.82
2022-11-24T13:02:20.056Z,14.75
2022-11-24T13:04:53.673Z,13.55
2022-11-24T13:07:27.915Z,12.50
2022-11-24T13:10:54.086Z,11.13
2022-11-24T13:13:19.016Z,12.98
2022-11-24T13:19:10.417Z,12.88
2022-11-24T13:21:51.795Z,10.57
2022-11-24T13:24:26.433Z,10.05
2022-11-24T13:26:56.164Z,12.95
2022-11-24T13:29:32.855Z,12.85
2022-11-24T13:32:48.764Z,10.65
2022-11-24T13:35:17.668Z,9.55
2022-11-24T13:37:51.371Z,12.02
2022-11-24T13:40:54.153Z,11.77
2022-11-24T13:43:30.092Z,10.43
2022-11-24T13:45:57.963Z,12.90
2022-11-24T13:49:01.886Z,11.43
2022-11-24T13:51:29.820Z,12.93
2022-11-24T13:54:00.702Z,13.43
2022-11-24T13:56:32.308Z,13.65
2022-11-24T13:59:01.996Z,13.07
2022-11-24T14:01:31.683Z,13.73
2022-11-24T14:04:29.309Z,13.25
2022-11-24T14:07:02.398Z,12.60
2022-11-24T14:09:37.032Z,12.27
2022-11-24T14:12:12.802Z,12.82
2022-11-24T14:14:40.879Z,13.50
2022-11-24T14:17:18.345Z,12.45
2022-11-24T14:19:47.644Z,12.25
2022-11-24T14:22:18.792Z,12.65
2022-11-24T14:24:47.857Z,12.57
2022-11-24T14:27:18.564Z,13.95
2022-11-24T14:29:57.140Z,13.07
2022-11-24T14:32:25.531Z,12.05
2022-11-24T14:34:54.402Z,12.48
2022-11-24T14:37:22.544Z,13.55
2022-11-24T14:39:50.502Z,12.90
2022-11-24T14:42:22.167Z,14.18
2022-11-24T14:44:54.076Z,12.15
2022-11-24T14:47:30.438Z,12.88
2022-11-24T14:50:07.824Z,12.82
2022-11-24T14:52:36.177Z,12.65
2022-11-24T14:55:21.939Z,11.18
2022-11-24T14:57:52.340Z,12.82
2022-11-24T15:00:25.704Z,9.15
2022-11-24T15:02:55.651Z,11.52
2022-11-24T15:05:25.225Z,13.23
2022-11-24T15:08:00.927Z,11.98
2022-11-24T15:10:33.958Z,11.93
2022-11-24T15:15:33.017Z,11.93
2022-11-24T15:18:02.291Z,11.93
2022-11-24T15:20:32.046Z,13.40
2022-11-24T15:23:23.126Z,13.18
2022-11-24T15:25:51.807Z,13.90
2022-11-24T15:28:25.428Z,13.75
2022-11-24T15:30:54.370Z,13.18
2022-11-24T15:33:23.506Z,13.55
2022-11-24T15:35:51.488Z,13.05
2022-11-24T15:38:19.461Z,13.98
2022-11-24T15:40:49.305Z,14.05
2022-11-24T15:43:24.266Z,12.48
2022-11-24T15:45:52.119Z,13.15
2022-11-24T15:48:19.985Z,12.75
2022-11-24T15:50:48.286Z,11.18
2022-11-24T15:53:18.929Z,12.88
2022-11-24T15:55:46.860Z,13.68
2022-11-24T15:58:15.605Z,13.30
2022-11-24T16:00:45.333Z,11.82
2022-11-24T16:03:44.990Z,13.15
2022-11-24T16:06:01.222Z,12.18
2022-11-24T16:08:29.091Z,12.65
2022-11-24T16:10:57.027Z,12.75
2022-11-24T16:13:24.955Z,12.15
2022-11-24T16:15:54.303Z,12.65
2022-11-24T16:18:22.204Z,11.90
2022-11-24T16:20:50.380Z,14.40
2022-11-24T16:23:19.237Z,12.73
2022-11-24T16:25:47.123Z,14.48
2022-11-24T16:28:15.006Z,12.68
2022-11-24T16:30:42.962Z,14.25
2022-11-24T16:33:12.193Z,12.52
2022-11-24T16:35:40.058Z,13.32
2022-11-24T16:38:08.049Z,13.55
2022-11-24T16:40:35.957Z,12.70
2022-11-24T16:43:04.017Z,11.70
2022-11-24T16:45:31.911Z,11.80
2022-11-24T16:48:01.690Z,12.80
2022-11-24T16:50:31.021Z,13.45
2022-11-24T16:52:58.937Z,14.27
2022-11-24T16:55:26.890Z,14.30
2022-11-24T16:57:54.900Z,12.73
2022-11-24T17:00:23.089Z,12.85
2022-11-24T17:02:51.128Z,13.77
2022-11-24T17:05:19.026Z,13.70
2022-11-24T17:07:48.728Z,14.95
2022-11-24T17:10:17.148Z,14.18
2022-11-24T17:12:45.003Z,14.93
2022-11-24T17:18:23.646Z,12.75
2022-11-24T17:20:48.614Z,13.02
2022-11-24T17:23:19.538Z,13.65
2022-11-24T17:25:48.329Z,10.10
2022-11-24T17:28:16.271Z,13.57
2022-11-24T17:30:44.183Z,12.77
2022-11-24T17:34:16.641Z,13.68
2022-11-24T17:36:45.992Z,11.98
2022-11-24T17:39:16.371Z,12.45
2022-11-24T17:41:46.173Z,12.50
2022-11-24T17:44:14.126Z,12.38
2022-11-24T17:46:42.068Z,13.18
2022-11-24T17:49:13.078Z,12.60
2022-11-24T17:51:41.180Z,12.85
2022-11-24T17:54:39.164Z,13.27
2022-11-24T17:56:58.704Z,14.38
2022-11-24T17:59:26.772Z,13.93
2022-11-24T18:01:54.703Z,14.05
2022-11-24T18:04:24.118Z,14.18
2022-11-24T18:06:52.076Z,14.43
2022-11-24T18:09:19.995Z,14.82
2022-11-24T18:11:47.975Z,14.60
2022-11-24T18:14:17.445Z,13.52
2022-11-24T18:16:45.310Z,14.68
2022-11-24T18:19:13.340Z,13.98
2022-11-24T18:21:42.223Z,14.57
2022-11-24T18:24:10.964Z,15.10
2022-11-24T18:26:39.379Z,14.73
2022-11-24T18:29:07.851Z,14.65
2022-11-24T18:31:37.469Z,13.45
2022-11-24T18:34:06.669Z,12.65
2022-11-24T18:36:35.919Z,14.00
2022-11-24T18:39:04.895Z,14.95
2022-11-24T18:41:33.265Z,12.80
2022-11-24T18:44:02.422Z,13.70
2022-11-24T18:46:30.508Z,14.48
2022-11-24T18:49:00.291Z,14.10
2022-11-24T18:51:28.301Z,13.25
2022-11-24T18:53:57.945Z,14.02
2022-11-24T18:56:26.440Z,13.15
2022-11-24T18:58:54.792Z,14.63
2022-11-24T19:01:27.207Z,15.18
2022-11-24T19:03:56.491Z,13.30
2022-11-24T19:06:28.973Z,13.93
2022-11-24T19:08:57.338Z,14.32
2022-11-24T19:11:28.046Z,14.38
2022-11-24T19:13:56.775Z,14.20
2022-11-24T19:16:25.411Z,13.98
2022-11-24T19:18:54.584Z,14.00
2022-11-24T19:21:23.372Z,14.52
2022-11-24T19:23:52.746Z,15.43
2022-11-24T19:26:20.821Z,14.70
2022-11-24T19:28:49.389Z,15.45
2022-11-24T19:31:19.076Z,14.52
2022-11-24T19:33:47.140Z,13.95
2022-11-24T19:36:16.381Z,13.48
2022-11-24T19:38:44.881Z,14.35
2022-11-24T19:41:15.082Z,14.05
2022-11-24T19:43:43.163Z,15.43
2022-11-24T19:46:12.983Z,15.13
2022-11-24T19:48:43.992Z,14.90
2022-11-24T19:51:13.953Z,15.63
2022-11-24T19:53:42.774Z,14.55
2022-11-24T19:56:12.863Z,16.02
2022-11-24T19:58:42.389Z,15.75
2022-11-24T20:01:11.481Z,14.02
2022-11-24T20:03:40.227Z,15.85
2022-11-24T20:06:09.913Z,15.20
2022-11-24T20:08:38.721Z,15.13
2022-11-24T20:11:07.864Z,16.13
2022-11-24T20:13:36.360Z,14.82
2022-11-24T20:16:06.777Z,15.63
2022-11-24T20:18:40.444Z,15.50
2022-11-24T20:21:10.977Z,16.63
2022-11-24T20:23:39.038Z,14.10
2022-11-24T20:26:08.443Z,15.73
2022-11-24T20:28:36.642Z,15.23
2022-11-24T20:31:06.737Z,15.95
2022-11-24T20:33:35.664Z,15.68
2022-11-24T20:36:05.212Z,14.00
2022-11-24T20:38:34.422Z,15.75
2022-11-24T20:41:08.716Z,15.18
2022-11-24T20:43:37.700Z,15.73
2022-11-24T20:46:09.214Z,15.65
2022-11-24T20:48:37.692Z,14.82
2022-11-24T20:51:06.974Z,15.48
2022-11-24T20:53:35.882Z,15.68
2022-11-24T20:56:06.305Z,16.17
2022-11-24T20:58:35.397Z,13.85
2022-11-24T21:01:09.967Z,14.57
2022-11-24T21:03:43.011Z,15.23
2022-11-24T21:06:11.991Z,14.00
2022-11-24T21:08:41.481Z,15.90
2022-11-24T21:11:11.351Z,14.55
2022-11-24T21:13:40.850Z,16.15
2022-11-24T21:16:17.813Z,14.48
2022-11-24T21:18:47.184Z,14.52
2022-11-24T21:21:15.671Z,14.98
2022-11-24T21:23:45.070Z,15.07
2022-11-24T21:26:16.894Z,14.70
2022-11-24T21:28:46.889Z,14.13
2022-11-24T21:31:17.445Z,14.40
2022-11-24T21:33:46.624Z,15.45
2022-11-24T21:36:15.949Z,14.90
2022-11-24T21:38:44.088Z,14.00
2022-11-24T21:41:13.926Z,12.93
2022-11-24T21:43:41.901Z,14.02
2022-11-24T21:46:12.632Z,13.18
2022-11-24T21:48:42.375Z,14.70
2022-11-24T21:51:13.279Z,15.05
2022-11-24T21:53:41.410Z,14.70
2022-11-24T21:56:12.819Z,15.00
2022-11-24T21:58:45.669Z,14.45
2022-11-24T22:01:14.239Z,14.57
2022-11-24T22:03:43.559Z,14.43
2022-11-24T22:06:11.521Z,14.13
2022-11-24T22:08:39.677Z,14.55
2022-11-24T22:11:09.732Z,14.45
2022-11-24T22:13:40.445Z,13.80
2022-11-24T22:16:10.642Z,14.05
2022-11-24T22:18:40.297Z,14.55
2022-11-24T22:21:12.019Z,14.85
2022-11-24T22:23:39.922Z,13.52
2022-11-24T22:26:09.763Z,13.63
2022-11-24T22:28:37.864Z,14.65
2022-11-24T22:31:06.268Z,14.52
2022-11-24T22:33:34.334Z,14.98
2022-11-24T22:36:02.829Z,13.80
2022-11-24T22:38:32.717Z,13.98
2022-11-24T22:41:04.542Z,13.57
2022-11-24T22:43:33.111Z,13.35
2022-11-24T22:46:04.940Z,13.65
2022-11-24T22:48:33.131Z,12.82
2022-11-24T22:51:05.744Z,13.25
2022-11-24T22:53:35.283Z,13.35
2022-11-24T22:56:03.458Z,13.10
2022-11-24T22:58:31.682Z,12.02
2022-11-24T23:01:05.156Z,14.27
2022-11-24T23:03:33.349Z,13.38
2022-11-24T23:06:01.603Z,13.38
2022-11-24T23:08:29.507Z,13.18
2022-11-24T23:11:03.513Z,13.20
2022-11-24T23:13:31.478Z,13.38
2022-11-24T23:16:03.253Z,12.82
2022-11-24T23:18:31.664Z,13.05
2022-11-24T23:21:06.226Z,12.68
2022-11-24T23:23:34.419Z,13.30
2022-11-24T23:26:03.856Z,11.18
2022-11-24T23:28:32.078Z,12.63
2022-11-24T23:31:04.028Z,13.27
2022-11-24T23:33:32.541Z,13.27
2022-11-24T23:36:02.053Z,11.95
2022-11-24T23:38:32.427Z,12.65
2022-11-24T23:41:01.029Z,12.13
2022-11-24T23:43:30.236Z,12.57
2022-11-24T23:46:02.676Z,11.98
2022-11-24T23:48:30.686Z,13.18
2022-11-24T23:50:58.513Z,14.07
2022-11-24T23:53:26.353Z,14.18
2022-11-24T23:55:54.847Z,12.85
2022-11-24T23:58:23.004Z,13.10
